TimeCDT,TemperatureF,Dew PointF,Humidity,Sea Level PressureIn,VisibilityMPH,Wind Direction,Wind SpeedMPH,Gust SpeedMPH,PrecipitationIn,Events,Conditions,WindDirDegrees,DateUTC
12:15 AM,76.1,64.9,68,29.87,10.0,SSE,8.1,16.1,N/A,,Clear,160,2013-05-28 05:15:00
12:35 AM,75.6,64.9,69,29.87,10.0,South,11.5,16.1,N/A,,Clear,170,2013-05-28 05:35:00
12:55 AM,75.4,64.9,70,29.85,10.0,SSE,10.4,16.1,N/A,,Clear,160,2013-05-28 05:55:00
1:15 AM,75.2,65.3,71,29.85,10.0,SSE,12.7,18.4,N/A,,Clear,160,2013-05-28 06:15:00
1:35 AM,74.8,65.5,73,29.84,10.0,SSE,9.2,-,N/A,,Clear,160,2013-05-28 06:35:00
1:55 AM,74.5,65.7,74,29.84,10.0,South,9.2,-,N/A,,Clear,170,2013-05-28 06:55:00
2:15 AM,74.3,66.0,75,29.83,10.0,SSE,10.4,-,N/A,,Clear,160,2013-05-28 07:15:00
2:35 AM,74.1,66.4,77,29.83,10.0,South,10.4,19.6,N/A,,Clear,170,2013-05-28 07:35:00
2:55 AM,73.6,66.6,79,29.83,10.0,South,10.4,17.3,N/A,,Clear,170,2013-05-28 07:55:00
3:15 AM,73.6,67.1,80,29.83,10.0,South,9.2,-,N/A,,Scattered Clouds,170,2013-05-28 08:15:00
3:35 AM,73.4,67.1,81,29.84,10.0,South,9.2,-,N/A,,Scattered Clouds,170,2013-05-28 08:35:00
3:55 AM,72.9,67.1,82,29.85,10.0,South,10.4,-,N/A,,Clear,170,2013-05-28 08:55:00
4:15 AM,72.5,67.1,83,29.85,10.0,South,8.1,-,N/A,,Clear,170,2013-05-28 09:15:00
4:35 AM,72.1,67.1,84,29.85,10.0,South,8.1,-,N/A,,Clear,170,2013-05-28 09:35:00
4:55 AM,72.0,67.1,85,29.86,10.0,South,4.6,-,N/A,,Clear,180,2013-05-28 09:55:00
5:15 AM,71.6,66.7,85,29.86,10.0,South,8.1,-,N/A,,Clear,170,2013-05-28 10:15:00
5:35 AM,71.1,66.6,86,29.86,10.0,South,9.2,-,N/A,,Clear,170,2013-05-28 10:35:00
5:55 AM,70.9,66.4,86,29.86,10.0,South,9.2,-,N/A,,Clear,170,2013-05-28 10:55:00
6:15 AM,70.9,66.2,85,29.86,10.0,South,8.1,-,N/A,,Clear,180,2013-05-28 11:15:00
6:35 AM,70.7,66.2,86,29.87,10.0,South,8.1,16.1,N/A,,Clear,170,2013-05-28 11:35:00
6:55 AM,70.9,66.2,85,29.87,10.0,South,8.1,-,N/A,,Clear,180,2013-05-28 11:55:00
7:15 AM,70.9,65.8,84,29.87,10.0,South,10.4,16.1,N/A,,Scattered Clouds,180,2013-05-28 12:15:00
7:35 AM,71.1,65.7,83,29.88,10.0,South,12.7,17.3,N/A,,Overcast,170,2013-05-28 12:35:00
7:55 AM,71.6,66.0,82,29.89,10.0,South,11.5,18.4,N/A,,Overcast,180,2013-05-28 12:55:00
8:15 AM,71.8,66.2,83,29.90,10.0,SSW,6.9,-,N/A,,Overcast,200,2013-05-28 13:15:00
8:35 AM,72.5,65.7,79,29.91,10.0,SSW,11.5,17.3,N/A,,Overcast,210,2013-05-28 13:35:00
8:55 AM,72.5,65.3,78,29.91,10.0,SSW,8.1,21.9,N/A,,Overcast,200,2013-05-28 13:55:00
9:15 AM,73.2,65.8,78,29.91,10.0,South,12.7,21.9,N/A,,Overcast,190,2013-05-28 14:15:00
9:35 AM,75.2,66.0,73,29.91,10.0,SSW,12.7,21.9,N/A,,Overcast,200,2013-05-28 14:35:00
9:55 AM,75.2,65.7,72,29.91,10.0,South,10.4,23.0,N/A,,Overcast,190,2013-05-28 14:55:00
10:15 AM,77.0,65.7,68,29.90,10.0,South,9.2,19.6,N/A,,Overcast,190,2013-05-28 15:15:00
10:35 AM,78.1,65.1,64,29.91,10.0,SSW,15.0,23.0,N/A,,Overcast,200,2013-05-28 15:35:00
10:55 AM,78.4,65.5,64,29.91,10.0,South,13.8,20.7,N/A,,Mostly Cloudy,190,2013-05-28 15:55:00
11:15 AM,79.5,65.8,63,29.90,10.0,SSW,15.0,23.0,N/A,,Mostly Cloudy,210,2013-05-28 16:15:00
11:35 AM,79.2,64.9,62,29.91,10.0,South,11.5,23.0,N/A,,Scattered Clouds,180,2013-05-28 16:35:00
11:55 AM,-9999,-9999,N/A,-9999,-9999.0,North,-9999.0,-,N/A,,Unknown,0,2013-05-28 16:55:00
12:15 PM,85.1,69.8,60,29.91,10.0,SSW,17.3,24.2,N/A,,Scattered Clouds,200,2013-05-28 17:15:00
12:35 PM,85.8,70.3,60,29.91,10.0,SSW,12.7,21.9,N/A,,Scattered Clouds,200,2013-05-28 17:35:00
12:55 PM,86.4,70.2,58,29.91,10.0,South,10.4,18.4,N/A,,Mostly Cloudy,180,2013-05-28 17:55:00
1:15 PM,86.4,69.6,57,29.90,10.0,SSW,15.0,19.6,N/A,,Mostly Cloudy,200,2013-05-28 18:15:00
1:35 PM,87.1,69.4,56,29.90,10.0,SSW,12.7,21.9,N/A,,Mostly Cloudy,200,2013-05-28 18:35:00
1:55 PM,85.8,68.2,55,29.90,10.0,South,12.7,20.7,N/A,,Mostly Cloudy,190,2013-05-28 18:55:00
2:15 PM,86.4,68.9,56,29.89,10.0,South,15.0,20.7,N/A,,Mostly Cloudy,170,2013-05-28 19:15:00
2:35 PM,86.5,68.5,55,29.89,10.0,South,10.4,19.6,N/A,,Mostly Cloudy,180,2013-05-28 19:35:00
2:55 PM,86.9,68.7,55,29.89,10.0,South,12.7,19.6,N/A,,Scattered Clouds,180,2013-05-28 19:55:00
3:15 PM,86.4,68.9,56,29.88,10.0,SSW,10.4,20.7,N/A,,Scattered Clouds,200,2013-05-28 20:15:00
3:35 PM,86.9,69.8,57,29.88,10.0,South,12.7,20.7,N/A,,Scattered Clouds,190,2013-05-28 20:35:00
3:55 PM,88.0,69.8,55,29.86,10.0,South,11.5,18.4,N/A,,Scattered Clouds,180,2013-05-28 20:55:00
4:15 PM,88.0,70.3,56,29.85,10.0,South,9.2,17.3,N/A,,Scattered Clouds,180,2013-05-28 21:15:00
4:35 PM,89.2,69.6,52,29.84,10.0,South,16.1,24.2,N/A,,Scattered Clouds,170,2013-05-28 21:35:00
4:55 PM,88.2,69.6,54,29.84,10.0,South,10.4,20.7,N/A,,Clear,170,2013-05-28 21:55:00
5:15 PM,87.3,68.2,53,29.84,10.0,SSE,13.8,23.0,N/A,,Scattered Clouds,160,2013-05-28 22:15:00
5:35 PM,88.0,67.6,51,29.84,10.0,South,10.4,18.4,N/A,,Scattered Clouds,170,2013-05-28 22:35:00
5:55 PM,87.3,68.2,53,29.84,10.0,South,8.1,16.1,N/A,,Clear,180,2013-05-28 22:55:00
6:15 PM,87.1,68.7,54,29.83,10.0,SSE,10.4,-,N/A,,Clear,160,2013-05-28 23:15:00
6:35 PM,85.6,68.9,57,29.82,10.0,SSE,11.5,16.1,N/A,,Clear,160,2013-05-28 23:35:00
6:55 PM,85.3,69.6,59,29.82,10.0,SSE,10.4,16.1,N/A,,Clear,150,2013-05-28 23:55:00
7:15 PM,84.7,70.0,61,29.81,10.0,SSE,9.2,-,N/A,,Clear,150,2013-05-29 00:15:00
7:35 PM,83.7,70.2,64,29.81,10.0,SSE,9.2,-,N/A,,Clear,150,2013-05-29 00:35:00
7:55 PM,83.3,69.6,63,29.80,10.0,SSE,10.4,18.4,N/A,,Clear,150,2013-05-29 00:55:00
8:15 PM,82.4,69.1,64,29.80,10.0,SSE,8.1,-,N/A,,Clear,150,2013-05-29 01:15:00
8:35 PM,82.2,69.1,64,29.81,10.0,SSE,6.9,-,N/A,,Clear,160,2013-05-29 01:35:00
8:55 PM,81.5,68.9,65,29.82,10.0,SSE,4.6,-,N/A,,Clear,160,2013-05-29 01:55:00
9:15 PM,81.0,68.9,67,29.82,10.0,SSE,6.9,-,N/A,,Clear,160,2013-05-29 02:15:00
9:35 PM,80.6,68.9,67,29.82,10.0,SSE,6.9,-,N/A,,Clear,160,2013-05-29 02:35:00
9:55 PM,80.6,68.9,67,29.81,10.0,SSE,9.2,-,N/A,,Clear,150,2013-05-29 02:55:00
10:15 PM,80.1,68.9,69,29.82,10.0,SSE,10.4,-,N/A,,Clear,150,2013-05-29 03:15:00
10:35 PM,80.2,69.1,69,29.83,10.0,SE,9.2,16.1,N/A,,Clear,140,2013-05-29 03:35:00
10:55 PM,79.7,69.1,70,29.83,10.0,SE,9.2,-,N/A,,Clear,140,2013-05-29 03:55:00
11:15 PM,79.3,69.1,71,29.83,10.0,SSE,9.2,-,N/A,,Clear,150,2013-05-29 04:15:00
11:35 PM,79.0,68.9,71,29.83,10.0,SSE,9.2,17.3,N/A,,Clear,160,2013-05-29 04:35:00
11:55 PM,79.2,68.4,69,29.83,10.0,SSE,8.1,-,N/A,,Clear,150,2013-05-29 04:55:00